Sausalito, California
Current Conditions -  °F | °C
As of 7:53 AM on Monday 24 Nov 2014 (Local Time) from KOAK Reporting Station
Few Clouds Few Clouds  
Wind Chill: 50°   Ceiling: Unl
Heat Index: 50°   Visibility: 10mi
Dew Point: 44°   Wind: 3mph
Humidity: 80%   Direction: 300°WNW
Pressure: 30.39"   Gusts: NA
Location:  37.86°N, 122.48°W
Report Text: KOAK 241553Z 30003KT 10SM FEW250 10/07 A3039 RMK AO2 SLP291 T01000067 $
Loading
Personal Weather Stations






























Interactive Weather Map New forecast layout! Learn more

10-Day Weather Forecast

Advertisements
Track Severe Weather on mobile